sensor_id;sensor_type;location;lat;lon;timestamp;P1;durP1;ratioP1;P2;durP2;ratioP2
23676;SDS011;31493;49.058;12.190;2023-04-03T00:02:08;4.82;;;3.05;;
23676;SDS011;31493;49.058;12.190;2023-04-03T00:04:35;3.70;;;3.10;;
23676;SDS011;31493;49.058;12.190;2023-04-03T00:07:03;7.60;;;3.20;;
23676;SDS011;31493;49.058;12.190;2023-04-03T00:09:30;4.10;;;2.63;;
23676;SDS011;31493;49.058;12.190;2023-04-03T00:11:57;4.55;;;3.10;;
23676;SDS011;31493;49.058;12.190;2023-04-03T00:14:25;4.95;;;3.53;;
23676;SDS011;31493;49.058;12.190;2023-04-03T00:16:53;4.15;;;3.08;;
23676;SDS011;31493;49.058;12.190;2023-04-03T00:19:20;4.05;;;3.15;;
23676;SDS011;31493;49.058;12.190;2023-04-03T00:21:47;4.53;;;3.17;;
23676;SDS011;31493;49.058;12.190;2023-04-03T00:24:15;4.40;;;3.40;;
23676;SDS011;31493;49.058;12.190;2023-04-03T00:26:42;5.28;;;3.05;;
23676;SDS011;31493;49.058;12.190;2023-04-03T00:29:09;4.68;;;3.13;;
23676;SDS011;31493;49.058;12.190;2023-04-03T00:31:36;4.07;;;3.10;;
23676;SDS011;31493;49.058;12.190;2023-04-03T00:34:03;5.45;;;3.50;;
23676;SDS011;31493;49.058;12.190;2023-04-03T00:36:30;5.45;;;3.15;;
23676;SDS011;31493;49.058;12.190;2023-04-03T00:38:57;4.63;;;3.15;;
23676;SDS011;31493;49.058;12.190;2023-04-03T00:41:26;5.15;;;3.20;;
23676;SDS011;31493;49.058;12.190;2023-04-03T00:43:53;4.25;;;3.22;;
23676;SDS011;31493;49.058;12.190;2023-04-03T00:46:20;4.63;;;3.40;;
23676;SDS011;31493;49.058;12.190;2023-04-03T00:48:47;5.50;;;3.50;;
23676;SDS011;31493;49.058;12.190;2023-04-03T00:51:16;4.47;;;3.03;;
23676;SDS011;31493;49.058;12.190;2023-04-03T00:53:47;5.47;;;3.28;;
23676;SDS011;31493;49.058;12.190;2023-04-03T00:56:18;4.38;;;3.30;;
23676;SDS011;31493;49.058;12.190;2023-04-03T00:58:51;3.63;;;2.97;;
23676;SDS011;31493;49.058;12.190;2023-04-03T01:01:22;6.72;;;3.50;;
23676;SDS011;31493;49.058;12.190;2023-04-03T01:03:51;5.07;;;3.35;;
23676;SDS011;31493;49.058;12.190;2023-04-03T01:06:20;5.65;;;3.50;;
23676;SDS011;31493;49.058;12.190;2023-04-03T01:08:51;4.60;;;3.03;;
23676;SDS011;31493;49.058;12.190;2023-04-03T01:11:19;6.18;;;3.30;;
23676;SDS011;31493;49.058;12.190;2023-04-03T01:13:47;4.65;;;3.25;;
23676;SDS011;31493;49.058;12.190;2023-04-03T01:16:16;5.43;;;3.22;;
23676;SDS011;31493;49.058;12.190;2023-04-03T01:18:43;5.63;;;2.95;;
23676;SDS011;31493;49.058;12.190;2023-04-03T01:21:25;5.70;;;3.22;;
23676;SDS011;31493;49.058;12.190;2023-04-03T01:24:20;5.45;;;3.58;;
23676;SDS011;31493;49.058;12.190;2023-04-03T01:26:53;4.60;;;2.88;;
23676;SDS011;31493;49.058;12.190;2023-04-03T01:29:20;5.35;;;3.20;;
23676;SDS011;31493;49.058;12.190;2023-04-03T01:31:50;5.93;;;3.35;;
23676;SDS011;31493;49.058;12.190;2023-04-03T01:34:18;6.50;;;3.42;;
23676;SDS011;31493;49.058;12.190;2023-04-03T01:36:46;6.75;;;3.60;;
23676;SDS011;31493;49.058;12.190;2023-04-03T01:39:13;7.05;;;3.72;;
23676;SDS011;31493;49.058;12.190;2023-04-03T01:41:40;5.75;;;3.17;;
23676;SDS011;31493;49.058;12.190;2023-04-03T01:44:07;4.68;;;3.20;;
23676;SDS011;31493;49.058;12.190;2023-04-03T01:46:34;4.75;;;3.60;;
23676;SDS011;31493;49.058;12.190;2023-04-03T01:49:04;6.60;;;3.60;;
23676;SDS011;31493;49.058;12.190;2023-04-03T01:51:31;4.88;;;3.22;;
23676;SDS011;31493;49.058;12.190;2023-04-03T01:53:59;6.18;;;3.40;;
23676;SDS011;31493;49.058;12.190;2023-04-03T01:56:26;4.28;;;3.40;;
23676;SDS011;31493;49.058;12.190;2023-04-03T01:58:53;5.63;;;3.75;;
23676;SDS011;31493;49.058;12.190;2023-04-03T02:01:20;4.18;;;3.42;;
23676;SDS011;31493;49.058;12.190;2023-04-03T02:03:47;5.75;;;3.40;;
23676;SDS011;31493;49.058;12.190;2023-04-03T02:06:15;4.63;;;3.30;;
23676;SDS011;31493;49.058;12.190;2023-04-03T02:08:42;7.38;;;3.20;;
23676;SDS011;31493;49.058;12.190;2023-04-03T02:11:09;4.80;;;3.42;;
23676;SDS011;31493;49.058;12.190;2023-04-03T02:13:36;8.02;;;3.20;;
23676;SDS011;31493;49.058;12.190;2023-04-03T02:16:07;6.28;;;3.65;;
23676;SDS011;31493;49.058;12.190;2023-04-03T02:18:35;5.93;;;3.20;;
23676;SDS011;31493;49.058;12.190;2023-04-03T02:21:02;5.72;;;3.28;;
23676;SDS011;31493;49.058;12.190;2023-04-03T02:23:31;4.32;;;3.35;;
23676;SDS011;31493;49.058;12.190;2023-04-03T02:26:05;7.18;;;4.40;;
23676;SDS011;31493;49.058;12.190;2023-04-03T02:28:33;4.90;;;3.55;;
23676;SDS011;31493;49.058;12.190;2023-04-03T02:31:00;4.00;;;3.30;;
23676;SDS011;31493;49.058;12.190;2023-04-03T02:33:27;4.63;;;3.72;;
23676;SDS011;31493;49.058;12.190;2023-04-03T02:35:55;6.15;;;3.45;;
23676;SDS011;31493;49.058;12.190;2023-04-03T02:38:22;9.90;;;3.92;;
23676;SDS011;31493;49.058;12.190;2023-04-03T02:40:51;4.78;;;3.55;;
23676;SDS011;31493;49.058;12.190;2023-04-03T02:43:18;8.57;;;4.00;;
23676;SDS011;31493;49.058;12.190;2023-04-03T02:45:45;6.80;;;4.30;;
23676;SDS011;31493;49.058;12.190;2023-04-03T02:48:12;5.05;;;3.83;;
23676;SDS011;31493;49.058;12.190;2023-04-03T02:50:40;7.38;;;4.15;;
23676;SDS011;31493;49.058;12.190;2023-04-03T02:53:08;6.70;;;4.00;;
23676;SDS011;31493;49.058;12.190;2023-04-03T02:55:35;6.82;;;4.03;;
23676;SDS011;31493;49.058;12.190;2023-04-03T02:58:03;5.50;;;4.32;;
23676;SDS011;31493;49.058;12.190;2023-04-03T03:00:30;6.18;;;3.92;;
23676;SDS011;31493;49.058;12.190;2023-04-03T03:02:57;7.82;;;3.83;;
23676;SDS011;31493;49.058;12.190;2023-04-03T03:05:24;6.18;;;4.20;;
23676;SDS011;31493;49.058;12.190;2023-04-03T03:07:51;5.95;;;3.65;;
23676;SDS011;31493;49.058;12.190;2023-04-03T03:10:18;5.70;;;4.18;;
23676;SDS011;31493;49.058;12.190;2023-04-03T03:12:46;5.57;;;3.85;;
23676;SDS011;31493;49.058;12.190;2023-04-03T03:15:14;8.13;;;4.35;;
23676;SDS011;31493;49.058;12.190;2023-04-03T03:17:42;8.82;;;4.40;;
23676;SDS011;31493;49.058;12.190;2023-04-03T03:20:10;5.32;;;4.22;;
23676;SDS011;31493;49.058;12.190;2023-04-03T03:22:39;6.78;;;3.58;;
23676;SDS011;31493;49.058;12.190;2023-04-03T03:25:07;10.25;;;3.65;;
23676;SDS011;31493;49.058;12.190;2023-04-03T03:27:34;5.82;;;3.67;;
23676;SDS011;31493;49.058;12.190;2023-04-03T03:30:01;6.18;;;3.90;;
23676;SDS011;31493;49.058;12.190;2023-04-03T03:32:30;5.38;;;3.70;;
23676;SDS011;31493;49.058;12.190;2023-04-03T03:34:57;6.50;;;4.05;;
23676;SDS011;31493;49.058;12.190;2023-04-03T03:37:24;6.85;;;3.78;;
23676;SDS011;31493;49.058;12.190;2023-04-03T03:39:52;7.07;;;3.70;;
23676;SDS011;31493;49.058;12.190;2023-04-03T03:42:19;5.22;;;3.58;;
23676;SDS011;31493;49.058;12.190;2023-04-03T03:44:46;4.93;;;3.38;;
23676;SDS011;31493;49.058;12.190;2023-04-03T03:47:13;6.50;;;3.80;;
23676;SDS011;31493;49.058;12.190;2023-04-03T03:49:42;6.03;;;3.90;;
23676;SDS011;31493;49.058;12.190;2023-04-03T03:52:09;6.88;;;3.85;;
23676;SDS011;31493;49.058;12.190;2023-04-03T03:54:36;7.18;;;3.58;;
23676;SDS011;31493;49.058;12.190;2023-04-03T03:57:03;6.05;;;3.60;;
23676;SDS011;31493;49.058;12.190;2023-04-03T03:59:31;7.00;;;3.58;;
23676;SDS011;31493;49.058;12.190;2023-04-03T04:01:58;7.28;;;3.63;;
23676;SDS011;31493;49.058;12.190;2023-04-03T04:04:25;7.07;;;3.83;;
23676;SDS011;31493;49.058;12.190;2023-04-03T04:06:54;5.78;;;3.85;;
23676;SDS011;31493;49.058;12.190;2023-04-03T04:09:21;5.80;;;3.70;;
23676;SDS011;31493;49.058;12.190;2023-04-03T04:11:48;4.70;;;3.55;;
23676;SDS011;31493;49.058;12.190;2023-04-03T04:14:15;7.70;;;3.47;;
23676;SDS011;31493;49.058;12.190;2023-04-03T04:16:42;6.05;;;3.90;;
23676;SDS011;31493;49.058;12.190;2023-04-03T04:19:09;4.70;;;3.47;;
23676;SDS011;31493;49.058;12.190;2023-04-03T04:21:36;8.15;;;3.67;;
23676;SDS011;31493;49.058;12.190;2023-04-03T04:24:05;7.00;;;3.90;;
23676;SDS011;31493;49.058;12.190;2023-04-03T04:26:32;7.85;;;4.18;;
23676;SDS011;31493;49.058;12.190;2023-04-03T04:28:59;6.35;;;3.50;;
23676;SDS011;31493;49.058;12.190;2023-04-03T04:31:26;5.72;;;3.55;;
23676;SDS011;31493;49.058;12.190;2023-04-03T04:33:53;5.75;;;4.22;;
23676;SDS011;31493;49.058;12.190;2023-04-03T04:36:20;5.70;;;3.92;;
23676;SDS011;31493;49.058;12.190;2023-04-03T04:38:47;6.03;;;3.60;;
23676;SDS011;31493;49.058;12.190;2023-04-03T04:41:19;4.85;;;3.60;;
23676;SDS011;31493;49.058;12.190;2023-04-03T04:43:47;7.40;;;3.97;;
23676;SDS011;31493;49.058;12.190;2023-04-03T04:46:15;5.05;;;3.85;;
23676;SDS011;31493;49.058;12.190;2023-04-03T04:48:42;6.68;;;3.78;;
23676;SDS011;31493;49.058;12.190;2023-04-03T04:51:10;6.38;;;4.22;;
23676;SDS011;31493;49.058;12.190;2023-04-03T04:53:37;7.23;;;3.70;;
23676;SDS011;31493;49.058;12.190;2023-04-03T04:56:04;7.03;;;4.25;;
23676;SDS011;31493;49.058;12.190;2023-04-03T04:58:34;5.20;;;3.70;;
23676;SDS011;31493;49.058;12.190;2023-04-03T05:03:29;6.17;;;4.00;;
23676;SDS011;31493;49.058;12.190;2023-04-03T05:05:57;6.07;;;3.88;;
23676;SDS011;31493;49.058;12.190;2023-04-03T05:08:24;7.50;;;3.97;;
23676;SDS011;31493;49.058;12.190;2023-04-03T05:10:51;6.78;;;4.20;;
23676;SDS011;31493;49.058;12.190;2023-04-03T05:13:18;7.57;;;4.10;;
23676;SDS011;31493;49.058;12.190;2023-04-03T05:15:47;6.20;;;3.78;;
23676;SDS011;31493;49.058;12.190;2023-04-03T05:18:14;5.68;;;4.15;;
23676;SDS011;31493;49.058;12.190;2023-04-03T05:20:41;5.50;;;3.88;;
23676;SDS011;31493;49.058;12.190;2023-04-03T05:23:08;8.20;;;3.80;;
23676;SDS011;31493;49.058;12.190;2023-04-03T05:25:36;4.55;;;3.50;;
23676;SDS011;31493;49.058;12.190;2023-04-03T05:28:04;7.13;;;4.00;;
23676;SDS011;31493;49.058;12.190;2023-04-03T05:30:31;6.15;;;4.05;;
23676;SDS011;31493;49.058;12.190;2023-04-03T05:33:00;6.50;;;3.90;;
23676;SDS011;31493;49.058;12.190;2023-04-03T05:35:27;7.07;;;3.80;;
23676;SDS011;31493;49.058;12.190;2023-04-03T05:37:54;7.82;;;3.80;;
23676;SDS011;31493;49.058;12.190;2023-04-03T05:40:21;6.50;;;3.72;;
23676;SDS011;31493;49.058;12.190;2023-04-03T05:42:48;6.35;;;4.10;;
23676;SDS011;31493;49.058;12.190;2023-04-03T05:45:16;7.45;;;4.03;;
23676;SDS011;31493;49.058;12.190;2023-04-03T05:47:43;7.28;;;4.00;;
23676;SDS011;31493;49.058;12.190;2023-04-03T05:50:11;4.93;;;3.80;;
23676;SDS011;31493;49.058;12.190;2023-04-03T05:52:40;8.60;;;4.30;;
23676;SDS011;31493;49.058;12.190;2023-04-03T05:55:10;10.75;;;4.38;;
23676;SDS011;31493;49.058;12.190;2023-04-03T05:57:37;7.93;;;4.45;;
23676;SDS011;31493;49.058;12.190;2023-04-03T06:00:05;8.15;;;4.93;;
23676;SDS011;31493;49.058;12.190;2023-04-03T06:02:35;7.43;;;4.38;;
23676;SDS011;31493;49.058;12.190;2023-04-03T06:05:02;10.50;;;5.22;;
23676;SDS011;31493;49.058;12.190;2023-04-03T06:07:31;6.97;;;4.75;;
23676;SDS011;31493;49.058;12.190;2023-04-03T06:09:58;9.63;;;4.53;;
23676;SDS011;31493;49.058;12.190;2023-04-03T06:12:25;7.70;;;4.68;;
23676;SDS011;31493;49.058;12.190;2023-04-03T06:14:54;7.28;;;4.72;;
23676;SDS011;31493;49.058;12.190;2023-04-03T06:17:21;7.47;;;4.40;;
23676;SDS011;31493;49.058;12.190;2023-04-03T06:19:49;8.70;;;4.75;;
23676;SDS011;31493;49.058;12.190;2023-04-03T06:22:16;6.53;;;4.50;;
23676;SDS011;31493;49.058;12.190;2023-04-03T06:24:44;8.65;;;4.88;;
23676;SDS011;31493;49.058;12.190;2023-04-03T06:29:38;7.88;;;4.50;;
23676;SDS011;31493;49.058;12.190;2023-04-03T06:32:06;8.98;;;4.72;;
23676;SDS011;31493;49.058;12.190;2023-04-03T06:34:33;8.15;;;4.55;;
23676;SDS011;31493;49.058;12.190;2023-04-03T06:37:00;10.07;;;4.70;;
23676;SDS011;31493;49.058;12.190;2023-04-03T06:39:27;10.57;;;5.38;;
23676;SDS011;31493;49.058;12.190;2023-04-03T06:41:56;7.80;;;4.78;;
23676;SDS011;31493;49.058;12.190;2023-04-03T06:44:23;8.15;;;4.78;;
23676;SDS011;31493;49.058;12.190;2023-04-03T06:46:50;6.90;;;4.88;;
23676;SDS011;31493;49.058;12.190;2023-04-03T06:49:17;8.25;;;4.63;;
23676;SDS011;31493;49.058;12.190;2023-04-03T06:51:44;9.38;;;5.05;;
23676;SDS011;31493;49.058;12.190;2023-04-03T06:54:11;7.88;;;4.50;;
23676;SDS011;31493;49.058;12.190;2023-04-03T06:56:38;9.73;;;4.63;;
23676;SDS011;31493;49.058;12.190;2023-04-03T06:59:06;9.07;;;4.50;;
23676;SDS011;31493;49.058;12.190;2023-04-03T07:01:34;11.45;;;4.32;;
23676;SDS011;31493;49.058;12.190;2023-04-03T07:04:01;8.85;;;3.90;;
23676;SDS011;31493;49.058;12.190;2023-04-03T07:06:28;7.65;;;4.28;;
23676;SDS011;31493;49.058;12.190;2023-04-03T07:08:56;7.47;;;3.97;;
23676;SDS011;31493;49.058;12.190;2023-04-03T07:11:23;6.80;;;3.70;;
23676;SDS011;31493;49.058;12.190;2023-04-03T07:13:51;9.23;;;4.30;;
23676;SDS011;31493;49.058;12.190;2023-04-03T07:16:20;6.90;;;3.47;;
23676;SDS011;31493;49.058;12.190;2023-04-03T07:18:47;6.32;;;3.65;;
23676;SDS011;31493;49.058;12.190;2023-04-03T07:21:14;6.70;;;3.50;;
23676;SDS011;31493;49.058;12.190;2023-04-03T07:23:41;9.80;;;4.15;;
23676;SDS011;31493;49.058;12.190;2023-04-03T07:26:09;7.00;;;3.70;;
23676;SDS011;31493;49.058;12.190;2023-04-03T07:28:36;8.15;;;3.83;;
23676;SDS011;31493;49.058;12.190;2023-04-03T07:31:04;9.55;;;3.33;;
23676;SDS011;31493;49.058;12.190;2023-04-03T07:33:35;9.05;;;2.95;;
23676;SDS011;31493;49.058;12.190;2023-04-03T07:38:30;6.53;;;3.30;;
23676;SDS011;31493;49.058;12.190;2023-04-03T07:40:57;6.68;;;2.97;;
23676;SDS011;31493;49.058;12.190;2023-04-03T07:43:24;5.95;;;3.30;;
23676;SDS011;31493;49.058;12.190;2023-04-03T07:45:52;5.88;;;3.20;;
23676;SDS011;31493;49.058;12.190;2023-04-03T07:48:20;5.85;;;2.10;;
23676;SDS011;31493;49.058;12.190;2023-04-03T07:50:49;8.23;;;3.25;;
23676;SDS011;31493;49.058;12.190;2023-04-03T07:53:16;6.47;;;2.78;;
23676;SDS011;31493;49.058;12.190;2023-04-03T07:55:45;6.35;;;2.67;;
23676;SDS011;31493;49.058;12.190;2023-04-03T07:58:14;5.80;;;2.80;;
23676;SDS011;31493;49.058;12.190;2023-04-03T08:00:43;8.00;;;2.83;;
23676;SDS011;31493;49.058;12.190;2023-04-03T08:03:10;8.18;;;2.72;;
23676;SDS011;31493;49.058;12.190;2023-04-03T08:05:37;7.10;;;2.75;;
23676;SDS011;31493;49.058;12.190;2023-04-03T08:08:06;6.68;;;2.92;;
23676;SDS011;31493;49.058;12.190;2023-04-03T08:10:34;7.25;;;2.72;;
23676;SDS011;31493;49.058;12.190;2023-04-03T08:13:02;5.43;;;2.40;;
23676;SDS011;31493;49.058;12.190;2023-04-03T08:15:30;4.82;;;2.33;;
23676;SDS011;31493;49.058;12.190;2023-04-03T08:17:58;6.78;;;2.50;;
23676;SDS011;31493;49.058;12.190;2023-04-03T08:20:25;4.72;;;2.40;;
23676;SDS011;31493;49.058;12.190;2023-04-03T08:22:53;5.05;;;2.42;;
23676;SDS011;31493;49.058;12.190;2023-04-03T08:25:22;5.55;;;2.58;;
23676;SDS011;31493;49.058;12.190;2023-04-03T08:27:49;3.30;;;2.00;;
23676;SDS011;31493;49.058;12.190;2023-04-03T08:32:45;3.58;;;1.85;;
23676;SDS011;31493;49.058;12.190;2023-04-03T08:35:12;5.22;;;2.30;;
23676;SDS011;31493;49.058;12.190;2023-04-03T08:37:39;5.78;;;2.08;;
23676;SDS011;31493;49.058;12.190;2023-04-03T08:40:07;3.80;;;1.90;;
23676;SDS011;31493;49.058;12.190;2023-04-03T08:42:44;5.60;;;2.40;;
23676;SDS011;31493;49.058;12.190;2023-04-03T08:45:19;3.90;;;2.15;;
23676;SDS011;31493;49.058;12.190;2023-04-03T08:47:54;3.40;;;1.75;;
23676;SDS011;31493;49.058;12.190;2023-04-03T08:50:26;4.72;;;1.83;;
23676;SDS011;31493;49.058;12.190;2023-04-03T08:52:57;2.60;;;1.48;;
23676;SDS011;31493;49.058;12.190;2023-04-03T08:55:26;2.90;;;1.40;;
23676;SDS011;31493;49.058;12.190;2023-04-03T08:57:59;5.07;;;1.58;;
23676;SDS011;31493;49.058;12.190;2023-04-03T09:00:41;3.00;;;1.58;;
23676;SDS011;31493;49.058;12.190;2023-04-03T09:03:12;2.45;;;1.20;;
23676;SDS011;31493;49.058;12.190;2023-04-03T09:05:41;3.42;;;1.50;;
23676;SDS011;31493;49.058;12.190;2023-04-03T09:08:16;3.97;;;1.80;;
23676;SDS011;31493;49.058;12.190;2023-04-03T09:10:49;5.65;;;1.63;;
23676;SDS011;31493;49.058;12.190;2023-04-03T09:13:26;3.25;;;1.35;;
23676;SDS011;31493;49.058;12.190;2023-04-03T09:16:00;3.78;;;1.58;;
23676;SDS011;31493;49.058;12.190;2023-04-03T09:18:31;4.20;;;1.70;;
23676;SDS011;31493;49.058;12.190;2023-04-03T09:21:04;3.33;;;1.40;;
23676;SDS011;31493;49.058;12.190;2023-04-03T09:23:42;3.58;;;1.35;;
23676;SDS011;31493;49.058;12.190;2023-04-03T09:26:13;3.33;;;1.08;;
23676;SDS011;31493;49.058;12.190;2023-04-03T09:28:44;2.55;;;1.05;;
23676;SDS011;31493;49.058;12.190;2023-04-03T09:33:45;3.60;;;1.20;;
23676;SDS011;31493;49.058;12.190;2023-04-03T09:36:13;4.88;;;0.95;;
23676;SDS011;31493;49.058;12.190;2023-04-03T09:38:40;2.17;;;1.10;;
23676;SDS011;31493;49.058;12.190;2023-04-03T09:41:13;2.90;;;1.13;;
23676;SDS011;31493;49.058;12.190;2023-04-03T09:43:52;3.03;;;1.35;;
23676;SDS011;31493;49.058;12.190;2023-04-03T09:46:25;3.00;;;1.50;;
23676;SDS011;31493;49.058;12.190;2023-04-03T09:48:56;3.60;;;1.42;;
23676;SDS011;31493;49.058;12.190;2023-04-03T09:53:53;3.28;;;1.60;;
23676;SDS011;31493;49.058;12.190;2023-04-03T09:56:23;3.80;;;1.70;;
23676;SDS011;31493;49.058;12.190;2023-04-03T09:59:06;2.60;;;1.30;;
23676;SDS011;31493;49.058;12.190;2023-04-03T10:01:39;2.40;;;1.10;;
23676;SDS011;31493;49.058;12.190;2023-04-03T10:04:09;2.00;;;1.20;;
23676;SDS011;31493;49.058;12.190;2023-04-03T10:06:39;4.05;;;1.40;;
23676;SDS011;31493;49.058;12.190;2023-04-03T10:09:16;1.17;;;0.90;;
23676;SDS011;31493;49.058;12.190;2023-04-03T10:11:59;3.15;;;1.15;;
23676;SDS011;31493;49.058;12.190;2023-04-03T10:14:31;4.80;;;1.20;;
23676;SDS011;31493;49.058;12.190;2023-04-03T10:19:32;3.25;;;1.20;;
23676;SDS011;31493;49.058;12.190;2023-04-03T10:22:04;3.08;;;1.20;;
23676;SDS011;31493;49.058;12.190;2023-04-03T10:24:49;2.67;;;1.10;;
23676;SDS011;31493;49.058;12.190;2023-04-03T10:27:26;7.25;;;1.65;;
23676;SDS011;31493;49.058;12.190;2023-04-03T10:30:03;3.65;;;1.35;;
23676;SDS011;31493;49.058;12.190;2023-04-03T10:32:45;4.70;;;1.30;;
23676;SDS011;31493;49.058;12.190;2023-04-03T10:35:25;2.15;;;0.93;;
23676;SDS011;31493;49.058;12.190;2023-04-03T10:38:04;2.70;;;1.10;;
23676;SDS011;31493;49.058;12.190;2023-04-03T10:40:39;2.55;;;1.05;;
23676;SDS011;31493;49.058;12.190;2023-04-03T10:43:15;2.72;;;1.30;;
23676;SDS011;31493;49.058;12.190;2023-04-03T10:45:51;2.55;;;1.20;;
23676;SDS011;31493;49.058;12.190;2023-04-03T10:48:30;3.70;;;1.33;;
23676;SDS011;31493;49.058;12.190;2023-04-03T10:51:10;2.40;;;1.33;;
23676;SDS011;31493;49.058;12.190;2023-04-03T10:53:44;6.55;;;1.42;;
23676;SDS011;31493;49.058;12.190;2023-04-03T10:56:19;1.90;;;1.00;;
23676;SDS011;31493;49.058;12.190;2023-04-03T10:58:54;4.05;;;1.50;;
23676;SDS011;31493;49.058;12.190;2023-04-03T11:01:27;3.13;;;1.30;;
23676;SDS011;31493;49.058;12.190;2023-04-03T11:03:59;2.63;;;1.40;;
23676;SDS011;31493;49.058;12.190;2023-04-03T11:06:31;2.67;;;1.38;;
23676;SDS011;31493;49.058;12.190;2023-04-03T11:09:05;5.65;;;1.30;;
23676;SDS011;31493;49.058;12.190;2023-04-03T11:11:42;2.53;;;1.23;;
23676;SDS011;31493;49.058;12.190;2023-04-03T11:14:11;2.65;;;1.20;;
23676;SDS011;31493;49.058;12.190;2023-04-03T11:16:47;1.38;;;0.73;;
23676;SDS011;31493;49.058;12.190;2023-04-03T11:19:20;4.47;;;1.30;;
23676;SDS011;31493;49.058;12.190;2023-04-03T11:21:52;2.50;;;1.33;;
23676;SDS011;31493;49.058;12.190;2023-04-03T11:24:24;2.30;;;1.38;;
23676;SDS011;31493;49.058;12.190;2023-04-03T11:26:54;3.00;;;1.27;;
23676;SDS011;31493;49.058;12.190;2023-04-03T11:29:23;2.75;;;1.23;;
23676;SDS011;31493;49.058;12.190;2023-04-03T11:34:58;2.15;;;1.27;;
23676;SDS011;31493;49.058;12.190;2023-04-03T11:37:29;2.67;;;1.38;;
23676;SDS011;31493;49.058;12.190;2023-04-03T11:40:02;3.97;;;1.60;;
23676;SDS011;31493;49.058;12.190;2023-04-03T11:42:33;5.28;;;1.20;;
23676;SDS011;31493;49.058;12.190;2023-04-03T11:45:16;2.75;;;1.25;;
23676;SDS011;31493;49.058;12.190;2023-04-03T11:47:50;3.25;;;1.35;;
23676;SDS011;31493;49.058;12.190;2023-04-03T11:50:31;3.38;;;1.48;;
23676;SDS011;31493;49.058;12.190;2023-04-03T11:53:26;4.50;;;1.38;;
23676;SDS011;31493;49.058;12.190;2023-04-03T11:56:03;2.55;;;1.30;;
23676;SDS011;31493;49.058;12.190;2023-04-03T12:01:53;2.05;;;1.10;;
23676;SDS011;31493;49.058;12.190;2023-04-03T12:04:22;2.20;;;1.33;;
23676;SDS011;31493;49.058;12.190;2023-04-03T12:12:29;5.60;;;1.60;;
23676;SDS011;31493;49.058;12.190;2023-04-03T12:17:50;2.30;;;1.30;;
23676;SDS011;31493;49.058;12.190;2023-04-03T12:23:24;3.78;;;1.70;;
23676;SDS011;31493;49.058;12.190;2023-04-03T12:26:00;4.22;;;1.38;;
23676;SDS011;31493;49.058;12.190;2023-04-03T12:28:35;3.80;;;1.60;;
23676;SDS011;31493;49.058;12.190;2023-04-03T12:31:04;2.88;;;1.42;;
23676;SDS011;31493;49.058;12.190;2023-04-03T12:33:37;3.28;;;1.67;;
23676;SDS011;31493;49.058;12.190;2023-04-03T12:36:15;4.32;;;1.42;;
23676;SDS011;31493;49.058;12.190;2023-04-03T12:39:02;4.85;;;1.48;;
23676;SDS011;31493;49.058;12.190;2023-04-03T12:41:42;3.08;;;1.52;;
23676;SDS011;31493;49.058;12.190;2023-04-03T12:47:18;3.55;;;1.20;;
23676;SDS011;31493;49.058;12.190;2023-04-03T12:49:50;2.63;;;1.30;;
23676;SDS011;31493;49.058;12.190;2023-04-03T12:54:51;2.38;;;1.23;;
23676;SDS011;31493;49.058;12.190;2023-04-03T12:57:18;3.50;;;1.60;;
23676;SDS011;31493;49.058;12.190;2023-04-03T12:59:48;3.22;;;1.30;;
23676;SDS011;31493;49.058;12.190;2023-04-03T13:02:20;4.57;;;1.40;;
23676;SDS011;31493;49.058;12.190;2023-04-03T13:04:50;2.70;;;1.30;;
23676;SDS011;31493;49.058;12.190;2023-04-03T13:07:21;3.20;;;1.40;;
23676;SDS011;31493;49.058;12.190;2023-04-03T13:10:13;2.97;;;1.13;;
23676;SDS011;31493;49.058;12.190;2023-04-03T13:12:46;2.83;;;1.38;;
23676;SDS011;31493;49.058;12.190;2023-04-03T13:15:17;2.70;;;1.20;;
23676;SDS011;31493;49.058;12.190;2023-04-03T13:17:46;2.88;;;1.40;;
23676;SDS011;31493;49.058;12.190;2023-04-03T13:20:17;2.45;;;1.33;;
23676;SDS011;31493;49.058;12.190;2023-04-03T13:22:49;2.55;;;1.30;;
23676;SDS011;31493;49.058;12.190;2023-04-03T13:25:21;4.97;;;1.13;;
23676;SDS011;31493;49.058;12.190;2023-04-03T13:27:51;3.20;;;1.25;;
23676;SDS011;31493;49.058;12.190;2023-04-03T13:30:23;2.83;;;1.20;;
23676;SDS011;31493;49.058;12.190;2023-04-03T13:32:53;3.17;;;1.38;;
23676;SDS011;31493;49.058;12.190;2023-04-03T13:35:26;3.05;;;1.60;;
23676;SDS011;31493;49.058;12.190;2023-04-03T13:38:02;2.95;;;1.42;;
23676;SDS011;31493;49.058;12.190;2023-04-03T13:40:33;2.50;;;1.20;;
23676;SDS011;31493;49.058;12.190;2023-04-03T13:43:01;3.90;;;1.60;;
23676;SDS011;31493;49.058;12.190;2023-04-03T13:45:30;1.88;;;1.20;;
23676;SDS011;31493;49.058;12.190;2023-04-03T13:48:07;2.88;;;1.50;;
23676;SDS011;31493;49.058;12.190;2023-04-03T13:50:50;3.00;;;1.40;;
23676;SDS011;31493;49.058;12.190;2023-04-03T13:53:20;1.73;;;1.02;;
23676;SDS011;31493;49.058;12.190;2023-04-03T13:55:55;3.28;;;1.40;;
23676;SDS011;31493;49.058;12.190;2023-04-03T13:58:28;2.65;;;1.35;;
23676;SDS011;31493;49.058;12.190;2023-04-03T14:00:56;2.65;;;1.40;;
23676;SDS011;31493;49.058;12.190;2023-04-03T14:03:29;2.00;;;1.35;;
23676;SDS011;31493;49.058;12.190;2023-04-03T14:05:58;2.08;;;1.10;;
23676;SDS011;31493;49.058;12.190;2023-04-03T14:08:26;5.32;;;1.70;;
23676;SDS011;31493;49.058;12.190;2023-04-03T14:10:55;3.28;;;1.60;;
23676;SDS011;31493;49.058;12.190;2023-04-03T14:13:22;3.20;;;1.38;;
23676;SDS011;31493;49.058;12.190;2023-04-03T14:15:49;2.85;;;1.45;;
23676;SDS011;31493;49.058;12.190;2023-04-03T14:18:18;2.70;;;1.40;;
23676;SDS011;31493;49.058;12.190;2023-04-03T14:23:13;4.07;;;1.55;;
23676;SDS011;31493;49.058;12.190;2023-04-03T14:25:41;2.88;;;1.60;;
23676;SDS011;31493;49.058;12.190;2023-04-03T14:28:14;4.10;;;1.40;;
23676;SDS011;31493;49.058;12.190;2023-04-03T14:30:44;4.30;;;1.70;;
23676;SDS011;31493;49.058;12.190;2023-04-03T14:33:13;3.05;;;1.60;;
23676;SDS011;31493;49.058;12.190;2023-04-03T14:35:42;3.17;;;1.55;;
23676;SDS011;31493;49.058;12.190;2023-04-03T14:38:20;3.60;;;1.45;;
23676;SDS011;31493;49.058;12.190;2023-04-03T14:40:50;2.95;;;1.40;;
23676;SDS011;31493;49.058;12.190;2023-04-03T14:43:19;3.30;;;1.60;;
23676;SDS011;31493;49.058;12.190;2023-04-03T14:45:46;6.18;;;1.55;;
23676;SDS011;31493;49.058;12.190;2023-04-03T14:48:16;3.63;;;1.20;;
23676;SDS011;31493;49.058;12.190;2023-04-03T14:50:47;2.30;;;1.40;;
23676;SDS011;31493;49.058;12.190;2023-04-03T14:53:14;2.03;;;1.27;;
23676;SDS011;31493;49.058;12.190;2023-04-03T14:55:43;3.95;;;1.27;;
23676;SDS011;31493;49.058;12.190;2023-04-03T14:58:13;4.57;;;1.60;;
23676;SDS011;31493;49.058;12.190;2023-04-03T15:00:42;3.85;;;1.90;;
23676;SDS011;31493;49.058;12.190;2023-04-03T15:03:12;2.97;;;1.70;;
23676;SDS011;31493;49.058;12.190;2023-04-03T15:05:41;3.28;;;1.55;;
23676;SDS011;31493;49.058;12.190;2023-04-03T15:08:17;2.53;;;1.50;;
23676;SDS011;31493;49.058;12.190;2023-04-03T15:10:46;1.90;;;1.00;;
23676;SDS011;31493;49.058;12.190;2023-04-03T15:13:14;3.00;;;1.40;;
23676;SDS011;31493;49.058;12.190;2023-04-03T15:15:42;4.30;;;1.50;;
23676;SDS011;31493;49.058;12.190;2023-04-03T15:18:10;4.60;;;1.58;;
23676;SDS011;31493;49.058;12.190;2023-04-03T15:20:42;2.80;;;1.35;;
23676;SDS011;31493;49.058;12.190;2023-04-03T15:23:09;4.55;;;1.45;;
23676;SDS011;31493;49.058;12.190;2023-04-03T15:25:38;2.97;;;1.50;;
23676;SDS011;31493;49.058;12.190;2023-04-03T15:28:06;3.03;;;1.40;;
23676;SDS011;31493;49.058;12.190;2023-04-03T15:30:36;3.08;;;1.60;;
23676;SDS011;31493;49.058;12.190;2023-04-03T15:33:07;3.63;;;1.52;;